Shindle, Pennsylvania
Current Conditions -  °F | °C
As of 8:53 PM on Sunday 23 Nov 2014 (Local Time) from KUNV Reporting Station
Overcast Overcast  
Wind Chill: 50°   Ceiling: 2800
Heat Index: 50°   Visibility: 10mi
Dew Point: 36°   Wind: 10mph
Humidity: 58%   Direction: 160°SSE
Pressure: 29.88"   Gusts: NA
Location:  40.7125°N, 77.3707°W
Report Text: KUNV 240153Z 16009KT 10SM OVC028 10/02 A2988
Loading
Personal Weather Stations






























Interactive Weather Map New forecast layout! Learn more

10-Day Weather Forecast

Advertisements
Track Severe Weather on mobile